Time;durP1;ratioP1;P1;durP2;ratioP2;P2;SDS_P1;SDS_P2;PMS_P1;PMS_P2;Temp;Humidity;BMP_temperature;BMP_pressure;BME280_temperature;BME280_humidity;BME280_pressure;Samples;Min_cycle;Max_cycle;Signal;HPM_P1;HPM_P2
2023/03/05 00:01:14;;;;;;;14.05;3.15;;;;;;;3.96;86.57;102183.13;4950220;28;20467;-80
2023/03/05 00:03:41;;;;;;;6.35;2.53;;;;;;;3.96;86.72;102182.25;4948988;28;20168;-79
2023/03/05 00:06:07;;;;;;;7.38;2.38;;;;;;;3.92;86.84;102173.38;4948915;28;20053;-79
2023/03/05 00:08:33;;;;;;;11.93;2.88;;;;;;;3.87;86.84;102182.44;4950127;29;20027;-79
2023/03/05 00:11:05;;;;;;;7.30;2.97;;;;;;;3.83;86.89;102176.28;4949237;29;20038;-80
2023/03/05 00:13:31;;;;;;;6.10;2.42;;;;;;;3.83;86.87;102173.59;4950189;28;20412;-79
2023/03/05 00:15:57;;;;;;;11.65;2.40;;;;;;;3.81;86.96;102168.22;4948430;29;20037;-80
2023/03/05 00:18:22;;;;;;;5.57;2.38;;;;;;;3.82;87.05;102178.09;4949958;28;20535;-80
2023/03/05 00:20:48;;;;;;;6.65;2.25;;;;;;;3.83;87.38;102174.47;4950744;28;20502;-80
2023/03/05 00:23:14;;;;;;;12.48;3.05;;;;;;;3.82;87.23;102169.09;4932861;29;20051;-80
2023/03/05 00:25:40;;;;;;;6.40;2.78;;;;;;;3.82;87.73;102166.41;4949086;29;20023;-80
2023/03/05 00:28:06;;;;;;;7.38;2.42;;;;;;;3.82;87.66;102169.09;4932418;29;20122;-80
2023/03/05 00:30:32;;;;;;;8.45;2.63;;;;;;;3.80;87.70;102161.06;4948865;28;20389;-78
2023/03/05 00:32:58;;;;;;;12.98;2.75;;;;;;;3.81;87.61;102157.44;4948738;28;20063;-79
2023/03/05 00:35:23;;;;;;;11.82;3.20;;;;;;;3.80;87.70;102160.19;4948885;29;20078;-79
2023/03/05 00:37:49;;;;;;;12.20;3.05;;;;;;;3.80;87.68;102154.81;4949786;29;20043;-79
2023/03/05 00:40:14;;;;;;;5.82;2.53;;;;;;;3.80;87.92;102146.72;4947437;29;20043;-80
2023/03/05 00:42:39;;;;;;;13.43;2.85;;;;;;;3.78;87.75;102151.28;4948326;28;20169;-79
2023/03/05 00:45:07;;;;;;;8.65;2.58;;;;;;;3.80;87.51;102152.13;4948809;28;20155;-80
2023/03/05 00:47:33;;;;;;;8.95;2.17;;;;;;;3.80;87.76;102147.63;4949596;28;20077;-79
2023/03/05 00:49:59;;;;;;;9.95;2.65;;;;;;;3.79;87.88;102144.97;4935233;28;20413;-80
2023/03/05 00:52:25;;;;;;;9.50;2.90;;;;;;;3.76;88.58;102140.53;4948591;29;20475;-80
2023/03/05 00:54:50;;;;;;;7.65;2.90;;;;;;;3.77;88.22;102147.69;4949534;28;20111;-80
2023/03/05 00:57:15;;;;;;;5.72;2.10;;;;;;;3.73;88.47;102137.00;4948182;28;20114;-80
2023/03/05 00:59:41;;;;;;;6.60;2.50;;;;;;;3.76;88.41;102140.53;4947982;28;20150;-80
2023/03/05 01:02:06;;;;;;;10.02;2.40;;;;;;;3.74;88.62;102136.13;4951318;29;20118;-78
2023/03/05 01:04:32;;;;;;;13.80;2.38;;;;;;;3.74;88.40;102137.00;4953994;29;20405;-80
2023/03/05 01:06:57;;;;;;;10.35;2.70;;;;;;;3.72;88.83;102132.56;4952243;28;20348;-80
2023/03/05 01:09:24;;;;;;;8.07;2.08;;;;;;;3.75;88.67;102136.06;4951626;29;20066;-79
2023/03/05 01:11:52;;;;;;;9.57;2.63;;;;;;;3.74;88.66;102128.06;4953381;28;20079;-79
2023/03/05 01:14:19;;;;;;;9.23;2.60;;;;;;;3.73;88.93;102121.78;4951563;28;20131;-80
2023/03/05 01:16:45;;;;;;;7.13;2.60;;;;;;;3.75;89.23;102124.44;4951556;28;20035;-80
2023/03/05 01:19:11;;;;;;;10.15;2.42;;;;;;;3.73;89.07;102115.50;4952071;29;20599;-80
2023/03/05 01:21:37;;;;;;;9.93;2.60;;;;;;;3.73;88.39;102119.09;4952160;29;20047;-80
2023/03/05 01:24:03;;;;;;;8.15;2.70;;;;;;;3.71;89.07;102112.84;4951186;28;20039;-80
2023/03/05 01:26:28;;;;;;;11.40;2.60;;;;;;;3.70;89.24;102108.38;4952022;28;20039;-80
2023/03/05 01:28:54;;;;;;;9.27;2.58;;;;;;;3.70;89.41;102105.69;4951066;28;20387;-79
2023/03/05 01:31:19;;;;;;;15.57;2.90;;;;;;;3.68;89.52;102099.44;4951183;28;20070;-80
2023/03/05 01:33:45;;;;;;;8.93;2.45;;;;;;;3.68;90.38;102099.44;4952728;28;20027;-80
2023/03/05 01:36:15;;;;;;;13.60;2.97;;;;;;;3.66;89.99;102093.22;4951548;29;20405;-79
2023/03/05 01:38:42;;;;;;;9.95;2.47;;;;;;;3.65;90.21;102091.47;4952424;28;20047;-80
2023/03/05 01:41:09;;;;;;;11.45;2.45;;;;;;;3.62;90.19;102086.16;4951330;29;20618;-80
2023/03/05 01:43:34;;;;;;;8.68;2.85;;;;;;;3.62;90.13;102090.66;4952477;28;20063;-81
2023/03/05 01:46:12;;;;;;;10.68;2.25;;;;;;;3.61;90.27;102081.69;4953196;28;20078;-80
2023/03/05 01:48:43;;;;;;;10.15;2.67;;;;;;;3.58;90.52;102074.56;4950186;29;20417;-80
2023/03/05 01:51:08;;;;;;;14.60;3.20;;;;;;;3.58;90.70;102079.94;4952342;29;20500;-79
2023/03/05 01:53:34;;;;;;;10.85;2.83;;;;;;;3.57;91.01;102074.63;4952481;28;20090;-78
2023/03/05 01:56:00;;;;;;;7.72;2.20;;;;;;;3.54;90.57;102071.97;4952858;29;20042;-80
2023/03/05 01:58:26;;;;;;;10.25;2.97;;;;;;;3.55;90.31;102071.09;4950365;28;20047;-80
2023/03/05 02:00:53;;;;;;;7.20;2.10;;;;;;;3.54;90.51;102069.28;4950812;28;20504;-80
2023/03/05 02:03:21;;;;;;;11.15;2.65;;;;;;;3.51;90.62;102062.19;4952012;28;20031;-80
2023/03/05 02:05:46;;;;;;;9.45;2.70;;;;;;;3.51;90.46;102048.75;4951143;28;20028;-79
2023/03/05 02:08:17;;;;;;;9.75;2.72;;;;;;;3.52;90.39;102047.81;4951046;29;20042;-79
2023/03/05 02:10:43;;;;;;;6.47;2.40;;;;;;;3.52;90.07;102039.75;4952393;28;20158;-78
2023/03/05 02:13:12;;;;;;;6.90;2.60;;;;;;;3.51;90.48;102040.69;4949324;28;20588;-79
2023/03/05 02:15:38;;;;;;;8.27;2.50;;;;;;;3.51;90.20;102035.28;4950780;28;20035;-80
2023/03/05 02:18:05;;;;;;;5.32;2.53;;;;;;;3.51;90.32;102039.78;4951655;28;20560;-80
2023/03/05 02:20:45;;;;;;;9.90;2.42;;;;;;;3.50;90.17;102033.53;4935196;29;20074;-79
2023/03/05 02:23:10;;;;;;;6.60;2.15;;;;;;;3.49;90.25;102026.34;4952203;29;20054;-79
2023/03/05 02:25:35;;;;;;;12.90;2.42;;;;;;;3.46;90.29;102020.19;4951477;28;20113;-79
2023/03/05 02:28:15;;;;;;;5.43;1.65;;;;;;;3.49;89.80;102028.16;4951879;28;20034;-79
2023/03/05 02:30:40;;;;;;;6.35;2.33;;;;;;;3.46;89.82;102021.06;4951745;28;20046;-80
2023/03/05 02:33:06;;;;;;;10.60;2.20;;;;;;;3.48;90.35;102021.03;4949791;28;20028;-79
2023/03/05 02:35:32;;;;;;;6.90;2.30;;;;;;;3.43;90.70;102014.88;4934859;29;20035;-80
2023/03/05 02:37:59;;;;;;;7.90;2.30;;;;;;;3.46;90.74;102022.88;4950744;29;20047;-80
2023/03/05 02:40:24;;;;;;;7.10;2.22;;;;;;;3.44;90.92;102014.81;4950321;28;20671;-80
2023/03/05 02:42:50;;;;;;;8.55;2.25;;;;;;;3.43;90.57;102015.75;4949870;28;20027;-80
2023/03/05 02:45:16;;;;;;;7.05;2.28;;;;;;;3.42;91.14;102008.63;4939702;28;20054;-79
2023/03/05 02:47:42;;;;;;;8.38;2.03;;;;;;;3.42;91.30;102005.03;4949771;28;20133;-80
2023/03/05 02:50:09;;;;;;;6.47;2.10;;;;;;;3.41;90.90;102008.66;4951807;29;20046;-80
2023/03/05 02:52:36;;;;;;;5.53;2.20;;;;;;;3.39;90.82;101995.22;4920513;28;20131;-79
2023/03/05 02:55:04;;;;;;;4.43;2.10;;;;;;;3.36;90.77;101991.72;4953315;28;20177;-80
2023/03/05 02:57:29;;;;;;;4.07;2.08;;;;;;;3.36;90.63;101994.41;4961395;28;20553;-80
2023/03/05 02:59:55;;;;;;;5.45;2.13;;;;;;;3.37;90.92;101996.19;4949528;28;20035;-80
2023/03/05 03:02:20;;;;;;;9.00;1.90;;;;;;;3.32;90.33;101986.44;4949144;29;20400;-80
2023/03/05 03:04:46;;;;;;;4.10;2.20;;;;;;;3.35;90.81;101987.28;4949922;29;20032;-80
2023/03/05 03:07:13;;;;;;;9.05;3.30;;;;;;;3.33;91.04;101979.25;4949920;29;20035;-79
2023/03/05 03:09:38;;;;;;;7.80;2.05;;;;;;;3.33;91.04;101977.44;4948308;29;20479;-81
2023/03/05 03:12:05;;;;;;;8.65;2.42;;;;;;;3.32;91.08;101983.75;4933785;29;20078;-79
2023/03/05 03:14:38;;;;;;;5.57;2.25;;;;;;;3.29;91.09;101974.84;4949227;28;20035;-80
2023/03/05 03:17:12;;;;;;;9.32;2.45;;;;;;;3.24;90.96;101968.72;4949397;28;20042;-80
2023/03/05 03:19:38;;;;;;;9.52;3.75;;;;;;;3.16;90.94;101957.25;4951385;29;20341;-79
2023/03/05 03:22:05;;;;;;;11.40;2.83;;;;;;;3.11;91.25;101959.16;4950670;29;20518;-79
2023/03/05 03:24:32;;;;;;;7.72;2.13;;;;;;;3.05;90.90;101958.38;4950766;28;20078;-80
2023/03/05 03:26:57;;;;;;;7.50;2.70;;;;;;;2.98;91.25;101950.50;4934176;28;20039;-80
2023/03/05 03:29:22;;;;;;;5.38;2.22;;;;;;;2.93;91.47;101947.91;4948941;28;20097;-79
2023/03/05 03:31:48;;;;;;;7.20;2.50;;;;;;;2.90;91.93;101942.63;4950494;28;20031;-79
2023/03/05 03:34:14;;;;;;;6.47;2.22;;;;;;;2.88;92.37;101940.88;4949663;29;20046;-79
2023/03/05 03:36:41;;;;;;;7.60;2.85;;;;;;;2.85;92.62;101944.53;4949285;29;20094;-79
2023/03/05 03:39:08;;;;;;;6.60;2.42;;;;;;;2.83;92.25;101937.41;4933402;29;20043;-79
2023/03/05 03:41:35;;;;;;;9.55;2.65;;;;;;;2.84;92.89;101941.88;4933080;28;20039;-79
2023/03/05 03:44:02;;;;;;;9.70;2.63;;;;;;;2.84;92.89;101936.50;4951104;28;20035;-80
2023/03/05 03:46:28;;;;;;;7.05;2.20;;;;;;;2.86;92.61;101940.94;4950887;28;20027;-80
2023/03/05 03:48:53;;;;;;;7.53;2.95;;;;;;;2.85;92.75;101927.53;4950418;28;20038;-80
2023/03/05 03:51:19;;;;;;;12.15;2.83;;;;;;;2.90;93.37;101936.38;4933040;29;20023;-79
2023/03/05 03:53:44;;;;;;;9.02;2.38;;;;;;;2.91;92.92;101930.94;4950236;28;20498;-80
2023/03/05 03:56:10;;;;;;;7.93;2.90;;;;;;;2.93;93.63;101933.59;4949140;29;20510;-80
2023/03/05 03:58:35;;;;;;;7.80;2.63;;;;;;;2.91;92.92;101922.88;4946666;28;20510;-80
2023/03/05 04:01:00;;;;;;;7.25;2.47;;;;;;;2.93;93.38;101930.91;4950631;28;20043;-79
2023/03/05 04:03:26;;;;;;;8.38;2.65;;;;;;;2.92;93.20;101926.47;4942982;29;20467;-79
2023/03/05 04:05:51;;;;;;;13.90;2.60;;;;;;;2.89;93.36;101919.38;4949025;29;20519;-80
2023/03/05 04:08:17;;;;;;;6.82;2.60;;;;;;;2.91;93.23;101922.00;4950431;28;20031;-80
2023/03/05 04:10:42;;;;;;;9.43;3.15;;;;;;;2.92;93.26;101921.97;4950275;29;20031;-79
2023/03/05 04:13:07;;;;;;;17.05;3.42;;;;;;;2.92;93.52;101921.97;4949814;28;20039;-80
2023/03/05 04:15:33;;;;;;;8.85;2.30;;;;;;;2.87;93.56;101915.81;4949229;28;20057;-79
2023/03/05 04:17:59;;;;;;;12.30;3.67;;;;;;;2.89;93.27;101905.03;4948046;29;20047;-79
2023/03/05 04:20:24;;;;;;;11.57;3.38;;;;;;;2.87;93.09;101898.81;4950230;29;20046;-80
2023/03/05 04:22:50;;;;;;;8.77;2.83;;;;;;;2.89;93.33;101895.19;4949006;29;20036;-80
2023/03/05 04:25:15;;;;;;;9.55;3.17;;;;;;;2.88;93.20;101897.88;4949154;29;20065;-80
2023/03/05 04:27:40;;;;;;;10.10;3.40;;;;;;;2.90;92.91;101901.44;4949729;28;20035;-79
2023/03/05 04:30:10;;;;;;;15.32;3.10;;;;;;;2.90;93.46;101890.69;4949732;28;20039;-80
2023/03/05 04:32:35;;;;;;;13.07;3.67;;;;;;;2.91;92.91;101889.75;4949692;28;20078;-80
2023/03/05 04:35:00;;;;;;;11.82;3.25;;;;;;;2.87;92.81;101886.25;4949763;28;20311;-79
2023/03/05 04:37:26;;;;;;;9.07;3.33;;;;;;;2.89;92.85;101884.44;4952578;29;20154;-80
2023/03/05 04:39:52;;;;;;;9.35;3.50;;;;;;;2.89;93.10;101880.81;4953870;29;20330;-81
2023/03/05 04:42:18;;;;;;;9.70;3.58;;;;;;;2.87;92.84;101874.63;4950236;29;20550;-80
2023/03/05 04:44:45;;;;;;;8.38;4.25;;;;;;;2.87;93.12;101883.56;4954706;28;20047;-79
2023/03/05 04:47:11;;;;;;;9.48;3.95;;;;;;;2.89;93.32;101878.16;4953318;28;20058;-78
2023/03/05 04:49:36;;;;;;;10.65;4.45;;;;;;;2.90;93.28;101885.31;4936803;29;20035;-79
2023/03/05 04:52:02;;;;;;;13.80;4.57;;;;;;;2.87;93.17;101874.63;4952378;29;20035;-79
2023/03/05 04:54:27;;;;;;;14.60;4.80;;;;;;;2.88;93.43;101876.38;4953770;28;20027;-79
2023/03/05 04:56:53;;;;;;;8.77;4.55;;;;;;;2.87;93.39;101874.63;4935756;28;20125;-78
2023/03/05 04:59:18;;;;;;;18.08;5.18;;;;;;;2.85;93.18;101868.41;4935953;28;20053;-79
2023/03/05 05:01:43;;;;;;;12.05;4.90;;;;;;;2.82;93.52;101864.00;4953459;29;20472;-80
2023/03/05 05:04:09;;;;;;;11.02;4.10;;;;;;;2.87;93.35;101855.81;4953174;28;20407;-79
2023/03/05 05:06:34;;;;;;;12.93;4.88;;;;;;;2.86;93.30;101870.19;4952205;29;20032;-78
2023/03/05 05:09:00;;;;;;;9.70;4.75;;;;;;;2.85;93.54;101866.59;4936234;29;20043;-78
2023/03/05 05:11:25;;;;;;;16.35;5.97;;;;;;;2.84;93.53;101861.25;4936706;29;20034;-80
2023/03/05 05:13:51;;;;;;;11.70;5.10;;;;;;;2.86;93.45;101865.69;4951652;28;20510;-80
2023/03/05 05:16:16;;;;;;;12.40;5.43;;;;;;;2.86;93.57;101849.56;4951647;28;20504;-78
2023/03/05 05:18:41;;;;;;;10.52;5.18;;;;;;;2.86;93.75;101854.06;4951993;28;20481;-78
2023/03/05 05:21:12;;;;;;;14.93;5.75;;;;;;;2.86;93.33;101854.06;4951690;28;20035;-80
2023/03/05 05:23:38;;;;;;;20.05;5.57;;;;;;;2.85;93.79;101847.81;4951751;29;20051;-80
2023/03/05 05:26:05;;;;;;;14.63;6.10;;;;;;;2.85;93.68;101847.81;4951869;29;20035;-80
2023/03/05 05:28:31;;;;;;;12.13;4.97;;;;;;;2.86;94.39;101851.38;4952734;28;20035;-80
2023/03/05 05:30:57;;;;;;;13.68;6.05;;;;;;;2.87;94.40;101850.44;4952084;28;20049;-80
2023/03/05 05:33:22;;;;;;;9.82;5.88;;;;;;;2.87;94.07;101854.00;4952753;28;20039;-80
2023/03/05 05:35:48;;;;;;;9.45;5.53;;;;;;;2.88;94.32;101852.19;4951671;29;20050;-79
2023/03/05 05:38:14;;;;;;;13.73;5.78;;;;;;;2.83;94.63;101841.56;4952455;28;20049;-80
2023/03/05 05:40:39;;;;;;;12.40;5.75;;;;;;;2.86;94.15;101846.88;4953147;29;20398;-79
2023/03/05 05:43:05;;;;;;;9.77;6.25;;;;;;;2.85;94.46;101842.44;4942818;29;20035;-79
2023/03/05 05:45:31;;;;;;;19.75;6.32;;;;;;;2.85;94.81;101842.44;4944133;28;20066;-80
2023/03/05 05:47:57;;;;;;;14.88;6.13;;;;;;;2.81;94.64;101830.84;4934574;29;20043;-80
2023/03/05 05:50:22;;;;;;;10.90;5.70;;;;;;;2.81;94.81;101832.66;4952955;29;20415;-80
2023/03/05 05:52:50;;;;;;;9.48;5.63;;;;;;;2.82;95.15;101834.44;4950782;28;20086;-78
2023/03/05 05:55:15;;;;;;;16.20;6.00;;;;;;;2.80;94.98;101830.91;4951257;29;20619;-80
2023/03/05 05:57:40;;;;;;;12.48;5.78;;;;;;;2.79;95.17;101829.13;4951603;28;20055;-78
2023/03/05 06:00:10;;;;;;;13.38;5.60;;;;;;;2.75;95.36;101820.28;4952618;28;20047;-79
2023/03/05 06:02:39;;;;;;;14.43;6.00;;;;;;;2.75;95.47;101822.97;4952472;28;20039;-79
2023/03/05 06:05:06;;;;;;;17.30;5.28;;;;;;;2.74;95.51;101817.59;4951008;29;20042;-79
2023/03/05 06:07:33;;;;;;;9.95;4.90;;;;;;;2.75;95.73;101822.03;4950369;29;20059;-80
2023/03/05 06:09:58;;;;;;;14.00;5.88;;;;;;;2.74;96.41;101812.22;4952525;28;20118;-79
2023/03/05 06:12:24;;;;;;;12.43;5.07;;;;;;;2.74;96.41;101823.84;4952149;28;20106;-79
2023/03/05 06:14:49;;;;;;;13.55;5.85;;;;;;;2.75;96.16;101819.34;4951975;28;20078;-77
2023/03/05 06:17:14;;;;;;;11.23;5.60;;;;;;;2.76;96.42;101819.34;4950575;28;20046;-78
2023/03/05 06:19:40;;;;;;;12.25;6.15;;;;;;;2.77;96.96;101812.16;4950927;29;20035;-80
2023/03/05 06:22:05;;;;;;;13.23;6.13;;;;;;;2.77;96.99;101812.16;4950443;28;20122;-80
2023/03/05 06:24:30;;;;;;;13.10;5.50;;;;;;;2.80;96.90;101817.47;4952129;28;20114;-80
2023/03/05 06:26:56;;;;;;;14.35;5.57;;;;;;;2.80;96.71;101815.66;4950711;28;20387;-80
2023/03/05 06:29:21;;;;;;;13.35;5.95;;;;;;;2.83;97.24;101816.50;4950307;28;20653;-80
2023/03/05 06:31:46;;;;;;;13.85;6.00;;;;;;;2.85;97.64;101815.56;4950816;29;20031;-80
2023/03/05 06:34:12;;;;;;;17.52;6.25;;;;;;;2.85;97.21;101811.97;4952125;28;20050;-80
2023/03/05 06:36:39;;;;;;;13.55;5.82;;;;;;;2.85;97.36;101812.88;4919083;29;20031;-81
2023/03/05 06:39:05;;;;;;;11.40;6.00;;;;;;;2.87;97.55;101819.06;4935508;28;20075;-80
2023/03/05 06:41:32;;;;;;;16.23;6.20;;;;;;;2.83;96.94;101806.63;4951274;29;20521;-80
2023/03/05 06:44:02;;;;;;;9.80;5.22;;;;;;;2.90;97.02;101813.63;4950414;28;20450;-80
2023/03/05 06:46:30;;;;;;;10.38;5.93;;;;;;;2.92;97.03;101818.94;4951426;28;20544;-80
2023/03/05 06:48:57;;;;;;;12.82;5.38;;;;;;;2.96;96.98;101812.59;4948277;29;20083;-80
2023/03/05 06:51:29;;;;;;;9.02;6.40;;;;;;;2.98;97.23;101818.78;4951047;29;20085;-80
2023/03/05 06:53:55;;;;;;;12.63;6.85;;;;;;;3.00;97.33;101817.84;4951812;28;20043;-81
2023/03/05 06:56:21;;;;;;;11.35;5.70;;;;;;;3.03;97.60;101819.56;4950804;29;20019;-80
2023/03/05 06:58:49;;;;;;;12.93;7.32;;;;;;;3.04;97.82;101799.84;4950844;28;20391;-81
2023/03/05 07:01:15;;;;;;;8.82;5.38;;;;;;;3.09;97.13;101811.34;4952259;28;20479;-80
2023/03/05 07:03:42;;;;;;;12.65;6.20;;;;;;;3.14;97.48;101808.53;4951807;28;20038;-81
2023/03/05 07:06:10;;;;;;;10.98;5.45;;;;;;;3.18;97.20;101812.91;4951734;28;20041;-82
2023/03/05 07:08:36;;;;;;;13.63;5.55;;;;;;;3.19;97.41;101804.81;4951273;28;20039;-82
2023/03/05 07:11:03;;;;;;;8.05;4.75;;;;;;;3.26;97.39;101808.19;4951781;29;20054;-81
2023/03/05 07:13:29;;;;;;;7.95;5.03;;;;;;;3.29;97.60;101805.44;4950289;28;20502;-82
2023/03/05 07:15:54;;;;;;;16.75;5.50;;;;;;;3.33;97.13;101807.13;4951484;28;20043;-81
2023/03/05 07:18:20;;;;;;;11.18;5.45;;;;;;;3.39;97.36;101809.63;4950140;28;20437;-81
2023/03/05 07:20:45;;;;;;;9.45;4.65;;;;;;;3.40;97.07;101807.84;4934165;29;20039;-82
2023/03/05 07:23:11;;;;;;;13.10;5.18;;;;;;;3.45;96.98;101805.91;4951117;28;20110;-80
2023/03/05 07:25:37;;;;;;;12.27;4.75;;;;;;;3.49;96.75;101804.88;4951118;28;20031;-79
2023/03/05 07:28:05;;;;;;;9.10;4.60;;;;;;;3.55;97.32;101796.66;4949569;28;20039;-79
2023/03/05 07:30:31;;;;;;;10.35;4.80;;;;;;;3.59;97.36;101795.66;4950083;28;20545;-81
2023/03/05 07:32:57;;;;;;;8.82;4.35;;;;;;;3.65;97.33;101790.09;4933879;29;20134;-78
2023/03/05 07:35:23;;;;;;;9.98;4.95;;;;;;;3.71;97.02;101792.59;4933749;29;20126;-78
2023/03/05 07:37:49;;;;;;;10.25;4.63;;;;;;;3.78;97.04;101790.63;4950945;29;20039;-80
2023/03/05 07:40:14;;;;;;;7.65;4.20;;;;;;;3.87;96.83;101801.13;4934073;29;20039;-80
2023/03/05 07:42:40;;;;;;;8.07;4.35;;;;;;;3.94;95.84;101797.31;4950651;28;20047;-80
2023/03/05 07:45:19;;;;;;;5.47;4.25;;;;;;;3.98;96.66;101799.00;4952310;28;20126;-79
2023/03/05 07:47:44;;;;;;;8.13;4.15;;;;;;;4.00;95.79;101796.25;4950522;28;20115;-81
2023/03/05 07:50:10;;;;;;;15.10;4.05;;;;;;;4.03;95.82;101799.72;4949730;29;20051;-80
2023/03/05 07:52:35;;;;;;;9.25;4.72;;;;;;;4.05;96.17;101787.09;4949302;29;20039;-81
2023/03/05 07:55:01;;;;;;;8.98;4.00;;;;;;;4.14;95.73;101796.72;4949830;28;20069;-78
2023/03/05 07:57:26;;;;;;;6.40;3.45;;;;;;;4.21;95.21;101802.81;4950319;28;20031;-79
2023/03/05 07:59:51;;;;;;;8.07;4.05;;;;;;;4.23;95.40;101787.47;4949144;28;20166;-80
2023/03/05 08:02:18;;;;;;;8.30;3.78;;;;;;;4.30;95.22;101792.63;4933141;28;20097;-80
2023/03/05 08:04:43;;;;;;;4.88;2.90;;;;;;;4.38;95.02;101792.38;4949102;29;20400;-78
2023/03/05 08:07:09;;;;;;;6.57;3.53;;;;;;;4.43;94.43;101790.44;4950741;29;20058;-81
2023/03/05 08:09:34;;;;;;;7.68;3.58;;;;;;;4.44;94.40;101783.22;4948192;28;20494;-80
2023/03/05 08:11:59;;;;;;;7.75;3.85;;;;;;;4.45;94.78;101771.53;4950549;28;20141;-80
2023/03/05 08:14:25;;;;;;;8.27;3.92;;;;;;;4.48;94.67;101775.00;4948719;28;20035;-79
2023/03/05 08:16:51;;;;;;;6.75;3.78;;;;;;;4.53;94.04;101766.78;4949165;29;20027;-78
2023/03/05 08:19:18;;;;;;;5.88;3.25;;;;;;;4.55;94.67;101767.59;4950261;28;20031;-78
2023/03/05 08:21:44;;;;;;;7.03;3.95;;;;;;;4.63;93.45;101772.75;4950277;29;20070;-78
2023/03/05 08:24:11;;;;;;;10.05;3.08;;;;;;;4.70;93.67;101769.78;4932822;29;20344;-78
2023/03/05 08:26:37;;;;;;;4.97;3.00;;;;;;;4.77;93.78;101768.66;4948495;28;20047;-77
2023/03/05 08:29:04;;;;;;;4.80;2.80;;;;;;;4.80;93.33;101760.47;4947158;29;20039;-79
2023/03/05 08:31:31;;;;;;;5.15;2.72;;;;;;;4.91;93.51;101756.53;4950414;28;20031;-81
2023/03/05 08:33:58;;;;;;;8.07;3.03;;;;;;;5.01;92.81;101760.66;4949977;28;20471;-77
2023/03/05 08:36:23;;;;;;;5.55;2.80;;;;;;;5.06;91.95;101761.38;4948938;29;20039;-78
2023/03/05 08:38:49;;;;;;;7.25;2.50;;;;;;;5.12;91.87;101753.06;4948507;28;20518;-80
2023/03/05 08:41:16;;;;;;;4.68;2.50;;;;;;;5.28;92.63;101756.13;4948769;29;20173;-79
2023/03/05 08:43:42;;;;;;;5.30;2.80;;;;;;;5.42;91.53;101752.91;4949656;28;20534;-78
2023/03/05 08:46:09;;;;;;;5.80;2.28;;;;;;;5.46;90.46;101743.78;4951238;28;20047;-79
2023/03/05 08:48:34;;;;;;;8.50;2.25;;;;;;;5.52;90.97;101743.53;4949894;28;20297;-80
2023/03/05 08:51:08;;;;;;;4.43;2.50;;;;;;;5.55;90.69;101744.31;4950447;29;20043;-80
2023/03/05 08:53:33;;;;;;;8.00;2.70;;;;;;;5.66;91.34;101746.59;4949512;28;20490;-77
2023/03/05 08:55:59;;;;;;;6.88;1.90;;;;;;;5.70;89.71;101742.84;4950294;29;20046;-79
2023/03/05 08:58:25;;;;;;;5.20;2.58;;;;;;;5.76;90.18;101737.22;4949385;28;20043;-79
2023/03/05 09:00:50;;;;;;;7.32;1.85;;;;;;;5.74;87.52;101736.41;4949471;28;20098;-79
2023/03/05 09:03:16;;;;;;;3.03;1.98;;;;;;;5.67;87.74;101742.09;4947418;29;20110;-78
2023/03/05 09:05:42;;;;;;;5.47;2.00;;;;;;;5.47;86.48;101732.91;4949851;29;20075;-78
2023/03/05 09:08:07;;;;;;;6.05;1.90;;;;;;;5.33;87.75;101741.50;4949476;28;20037;-79
2023/03/05 09:10:32;;;;;;;10.40;3.47;;;;;;;5.37;89.23;101729.69;4948410;29;20046;-80
2023/03/05 09:12:57;;;;;;;3.70;2.38;;;;;;;5.40;89.27;101730.50;4949724;28;20065;-78
2023/03/05 09:15:23;;;;;;;2.92;2.15;;;;;;;5.46;89.69;101728.47;4949500;28;20130;-79
2023/03/05 09:17:48;;;;;;;2.88;2.00;;;;;;;5.56;88.99;101721.78;4948180;28;20031;-77
2023/03/05 09:20:15;;;;;;;2.60;1.80;;;;;;;5.69;88.65;101722.19;4948632;29;20035;-79
2023/03/05 09:22:40;;;;;;;2.97;1.95;;;;;;;5.81;87.38;101727.13;4952577;28;20035;-80
2023/03/05 09:25:07;;;;;;;3.03;1.67;;;;;;;5.96;88.17;101717.56;4951599;28;20419;-78
2023/03/05 09:27:36;;;;;;;2.40;1.58;;;;;;;6.07;86.84;101719.88;4952811;28;20035;-77
2023/03/05 09:30:05;;;;;;;4.00;2.00;;;;;;;6.16;84.86;101708.69;4952909;28;20035;-79
2023/03/05 09:32:31;;;;;;;3.58;1.65;;;;;;;6.13;84.49;101708.81;4953074;28;20046;-79
2023/03/05 09:34:57;;;;;;;3.60;1.90;;;;;;;6.09;84.54;101708.03;4951648;29;20387;-78
2023/03/05 09:37:22;;;;;;;4.07;1.95;;;;;;;6.24;86.42;101702.97;4952839;29;20066;-78
2023/03/05 09:39:48;;;;;;;4.13;1.95;;;;;;;6.36;85.42;101703.34;4951002;28;20026;-79
2023/03/05 09:42:39;;;;;;;4.78;1.90;;;;;;;6.50;84.84;101705.47;4952575;28;20114;-79
2023/03/05 09:45:15;;;;;;;2.30;1.20;;;;;;;6.61;83.46;101702.31;4951224;28;20093;-80
2023/03/05 09:48:12;;;;;;;3.50;1.17;;;;;;;6.71;83.50;101698.28;4952478;28;20046;-77
2023/03/05 09:50:42;;;;;;;3.80;1.30;;;;;;;6.71;82.89;101692.84;4959968;28;20081;-80
2023/03/05 09:53:21;;;;;;;2.47;1.50;;;;;;;6.73;82.76;101698.22;4957576;28;20062;-79
2023/03/05 09:55:53;;;;;;;3.15;1.40;;;;;;;6.60;80.69;101696.03;4952715;29;20043;-78
2023/03/05 09:58:38;;;;;;;2.03;1.45;;;;;;;6.49;81.23;101692.91;4951837;28;20047;-79
2023/03/05 10:01:13;;;;;;;2.13;1.48;;;;;;;6.31;79.50;101699.06;4952094;28;20077;-78
2023/03/05 10:03:46;;;;;;;2.35;1.30;;;;;;;6.24;81.21;101689.44;4951195;28;20122;-77
2023/03/05 10:06:22;;;;;;;4.13;1.25;;;;;;;6.27;82.33;101692.91;4952504;29;20423;-78
2023/03/05 10:08:53;;;;;;;1.85;1.35;;;;;;;6.31;81.52;101683.75;4951878;28;20483;-78
2023/03/05 10:11:54;;;;;;;2.80;1.10;;;;;;;6.33;82.95;101689.94;4950653;29;20514;-79
2023/03/05 10:14:33;;;;;;;3.45;1.10;;;;;;;6.44;82.56;101667.91;4950675;28;20518;-80
2023/03/05 10:17:14;;;;;;;2.83;1.15;;;;;;;6.52;81.11;101678.38;4935393;29;20039;-80
2023/03/05 10:19:48;;;;;;;1.25;1.10;;;;;;;6.62;80.84;101677.94;4951853;28;20070;-77
2023/03/05 10:22:21;;;;;;;2.55;1.02;;;;;;;6.76;83.00;101669.22;4934713;29;20035;-78
2023/03/05 10:25:10;;;;;;;1.65;1.40;;;;;;;6.88;81.87;101660.56;4951938;29;20035;-77
2023/03/05 10:27:55;;;;;;;1.98;1.27;;;;;;;6.90;80.15;101666.81;4951527;28;20404;-76
2023/03/05 10:30:39;;;;;;;5.55;1.45;;;;;;;6.87;79.89;101666.06;4950144;28;20043;-77
2023/03/05 10:33:30;;;;;;;3.60;1.40;;;;;;;6.88;81.49;101657.84;4949375;28;20463;-79
2023/03/05 10:36:13;;;;;;;1.95;1.20;;;;;;;6.90;81.10;101661.41;4952496;29;20054;-78
2023/03/05 10:38:53;;;;;;;3.63;2.35;;;;;;;6.77;78.26;101656.59;4950388;29;20471;-78
2023/03/05 10:41:43;;;;;;;2.45;1.20;;;;;;;6.62;78.79;101655.41;4950346;28;20563;-76
2023/03/05 10:44:30;;;;;;;2.63;1.30;;;;;;;6.45;80.75;101657.97;4952039;28;20082;-79
2023/03/05 10:46:58;;;;;;;2.35;1.40;;;;;;;6.37;80.11;101656.44;4951783;29;20074;-77
2023/03/05 10:49:30;;;;;;;4.88;1.70;;;;;;;6.33;81.20;101649.41;4950081;28;20051;-77
2023/03/05 10:52:32;;;;;;;2.50;1.38;;;;;;;6.57;82.79;101647.50;4950387;29;20440;-78
2023/03/05 10:54:57;;;;;;;4.35;1.48;;;;;;;6.76;81.70;101649.41;4877079;29;20084;-79
2023/03/05 10:57:29;;;;;;;2.30;1.08;;;;;;;6.88;80.09;101649.75;4922078;29;20047;-77
2023/03/05 11:00:15;;;;;;;4.28;1.50;;;;;;;6.90;79.80;101630.72;4951167;28;20460;-77
2023/03/05 11:03:04;;;;;;;2.30;1.30;;;;;;;7.00;79.22;101633.94;4951060;28;20395;-77
2023/03/05 11:05:40;;;;;;;1.35;1.13;;;;;;;7.19;80.05;101626.75;4951775;29;20082;-80
2023/03/05 11:08:30;;;;;;;1.75;1.02;;;;;;;7.36;77.94;101615.97;4949755;29;20043;-79
2023/03/05 11:11:05;;;;;;;1.33;1.10;;;;;;;7.42;77.58;101620.25;4951020;28;20042;-77
2023/03/05 11:13:32;;;;;;;5.72;1.15;;;;;;;7.59;75.95;101605.91;4951181;28;20043;-80
2023/03/05 11:16:04;;;;;;;1.73;0.98;;;;;;;7.57;73.14;101605.13;4951453;28;20034;-81
2023/03/05 11:18:33;;;;;;;1.13;0.87;;;;;;;7.41;73.98;101607.66;4945363;28;20038;-79
2023/03/05 11:21:22;;;;;;;1.05;0.70;;;;;;;7.57;75.99;101603.28;4960572;28;20110;-80
2023/03/05 11:24:03;;;;;;;4.10;1.60;;;;;;;7.86;75.38;101601.88;4951007;29;20135;-78
2023/03/05 11:26:29;;;;;;;2.33;1.15;;;;;;;7.97;73.81;101595.03;4951304;28;20061;-80
2023/03/05 11:29:00;;;;;;;1.98;1.05;;;;;;;8.07;71.64;101593.66;4950599;28;20031;-80
2023/03/05 11:31:31;;;;;;;6.90;1.08;;;;;;;8.04;71.14;101589.25;4949216;28;20130;-80
2023/03/05 11:34:03;;;;;;;3.08;1.00;;;;;;;8.01;72.45;101588.50;4948678;29;20079;-78
2023/03/05 11:36:36;;;;;;;2.30;0.80;;;;;;;8.27;70.83;101585.38;4950070;29;20027;-78